Time;durP1;ratioP1;P1;durP2;ratioP2;P2;SDS_P1;SDS_P2;PMS_P1;PMS_P2;Temp;Humidity;BMP_temperature;BMP_pressure;BME280_temperature;BME280_humidity;BME280_pressure;Samples;Min_cycle;Max_cycle;Signal;HPM_P1;HPM_P2
2023/07/16 00:00:22;;;;;;;5.03;2.70;;;;;;;23.19;100.00;98056.91;3998278;29;21007;-73
2023/07/16 00:02:29;;;;;;;3.43;2.93;;;;;;;23.18;100.00;98049.91;3998979;29;20676;-73
2023/07/16 00:04:32;;;;;;;6.23;3.00;;;;;;;23.13;100.00;98045.13;4012857;29;21049;-73
2023/07/16 00:06:35;;;;;;;3.87;2.90;;;;;;;23.13;100.00;98050.47;4013450;29;20676;-73
2023/07/16 00:08:38;;;;;;;4.10;3.17;;;;;;;23.11;100.00;98044.50;4014594;29;20669;-73
2023/07/16 00:10:42;;;;;;;3.77;2.67;;;;;;;23.12;100.00;98050.66;4013563;29;20661;-73
2023/07/16 00:12:47;;;;;;;4.10;2.80;;;;;;;23.13;100.00;98057.63;4004048;29;21005;-73
2023/07/16 00:14:50;;;;;;;3.67;2.80;;;;;;;23.12;100.00;98079.94;4017321;29;20665;-73
2023/07/16 00:16:53;;;;;;;4.27;2.83;;;;;;;23.13;100.00;98069.09;4014319;29;20664;-74
2023/07/16 00:18:56;;;;;;;4.17;2.97;;;;;;;23.12;100.00;98069.28;4010868;29;20695;-73
2023/07/16 00:21:00;;;;;;;4.63;3.00;;;;;;;23.09;100.00;98051.00;4011980;29;20758;-73
2023/07/16 00:23:03;;;;;;;3.37;2.70;;;;;;;23.09;100.00;98061.66;4017315;29;20724;-73
2023/07/16 00:25:07;;;;;;;5.10;3.13;;;;;;;23.08;100.00;98041.38;4008110;29;21032;-73
2023/07/16 00:27:10;;;;;;;3.30;2.20;;;;;;;23.08;100.00;98030.72;4010977;29;20656;-73
2023/07/16 00:29:15;;;;;;;4.13;2.80;;;;;;;23.00;100.00;98038.78;4018470;29;20653;-73
2023/07/16 00:31:18;;;;;;;2.67;2.00;;;;;;;22.98;100.00;98036.31;4002927;29;21271;-73
2023/07/16 00:33:21;;;;;;;3.47;2.40;;;;;;;22.96;100.00;98058.81;4007394;29;20661;-73
2023/07/16 00:35:25;;;;;;;3.23;2.60;;;;;;;22.98;100.00;98064.78;4014969;29;20663;-75
2023/07/16 00:37:28;;;;;;;3.80;2.57;;;;;;;22.99;100.00;98056.59;4012411;29;20686;-76
2023/07/16 00:39:31;;;;;;;3.90;2.53;;;;;;;23.00;100.00;98055.59;4011987;29;20657;-73
2023/07/16 00:41:34;;;;;;;3.00;2.60;;;;;;;22.99;100.00;98051.28;4014297;29;20668;-75
2023/07/16 00:43:37;;;;;;;2.63;2.17;;;;;;;23.00;100.00;98070.72;4010552;29;20701;-75
2023/07/16 00:45:52;;;;;;;3.30;2.43;;;;;;;22.99;100.00;98090.38;4010167;29;20661;-76
2023/07/16 00:47:59;;;;;;;3.50;2.23;;;;;;;22.98;100.00;98078.91;4012405;29;20664;-76
2023/07/16 00:50:02;;;;;;;4.00;2.33;;;;;;;22.99;100.00;98082.41;4010172;29;20741;-76
2023/07/16 00:52:06;;;;;;;3.90;2.43;;;;;;;22.97;100.00;98079.94;4003731;29;20756;-75
2023/07/16 00:54:09;;;;;;;2.93;2.30;;;;;;;22.97;100.00;98068.44;4012982;29;20691;-75
2023/07/16 00:56:17;;;;;;;4.43;2.57;;;;;;;22.96;100.00;98062.28;4008802;29;20976;-76
2023/07/16 00:58:20;;;;;;;3.57;2.47;;;;;;;22.96;100.00;98059.63;4012271;29;20731;-75
2023/07/16 01:00:24;;;;;;;2.87;2.20;;;;;;;22.98;100.00;98054.13;4024107;29;21131;-76
2023/07/16 01:02:29;;;;;;;5.10;2.70;;;;;;;22.97;100.00;98073.75;4013243;29;20650;-73
2023/07/16 01:04:33;;;;;;;4.20;2.83;;;;;;;22.96;100.00;98067.63;4014416;29;20664;-73
2023/07/16 01:06:41;;;;;;;3.73;2.60;;;;;;;22.93;100.00;98046.69;4023736;29;21076;-75
2023/07/16 01:08:47;;;;;;;3.17;2.50;;;;;;;22.93;100.00;98044.03;4008438;29;20667;-76
2023/07/16 01:10:52;;;;;;;3.53;2.30;;;;;;;22.93;100.00;98040.53;4022876;29;20653;-76
2023/07/16 01:12:56;;;;;;;3.77;2.30;;;;;;;22.92;100.00;98038.84;4000149;29;21378;-76
2023/07/16 01:15:01;;;;;;;3.40;1.93;;;;;;;22.92;100.00;98038.84;4016928;29;20679;-74
2023/07/16 01:17:06;;;;;;;2.23;1.50;;;;;;;22.90;100.00;98051.53;4011363;29;20664;-73
2023/07/16 01:19:13;;;;;;;2.30;1.90;;;;;;;22.89;100.00;98057.84;4012128;29;20658;-73
2023/07/16 01:21:19;;;;;;;2.77;1.97;;;;;;;22.86;100.00;98084.81;4010271;29;20679;-73
2023/07/16 01:23:33;;;;;;;2.20;1.70;;;;;;;22.81;100.00;98100.50;3997936;29;20681;-73
2023/07/16 01:25:59;;;;;;;2.47;1.80;;;;;;;22.73;100.00;98106.72;3996925;29;20653;-74
2023/07/16 01:28:16;;;;;;;2.13;1.50;;;;;;;22.65;100.00;98111.28;4006020;29;20665;-73
2023/07/16 01:30:21;;;;;;;3.00;1.73;;;;;;;22.57;100.00;98111.34;4005186;29;20648;-74
2023/07/16 01:32:28;;;;;;;2.57;1.30;;;;;;;22.55;100.00;98107.19;4013667;29;21194;-73
2023/07/16 01:34:34;;;;;;;2.00;1.20;;;;;;;22.51;100.00;98108.56;4010769;29;20660;-73
2023/07/16 01:36:40;;;;;;;1.90;1.47;;;;;;;22.46;100.00;98117.09;4005972;29;20673;-73
2023/07/16 01:38:43;;;;;;;2.13;1.40;;;;;;;22.41;100.00;98114.09;4008441;29;20699;-73
2023/07/16 01:40:48;;;;;;;2.63;1.60;;;;;;;22.40;100.00;98107.16;3998415;29;20683;-73
2023/07/16 01:42:51;;;;;;;1.73;1.43;;;;;;;22.41;100.00;98107.97;4014294;29;20653;-74
2023/07/16 01:44:55;;;;;;;1.80;1.20;;;;;;;22.40;100.00;98107.16;3995450;29;20660;-74
2023/07/16 01:47:10;;;;;;;2.60;1.20;;;;;;;22.36;100.00;98097.88;3999047;29;20659;-74
2023/07/16 01:49:14;;;;;;;2.23;1.13;;;;;;;22.35;100.00;98112.16;3999296;29;20679;-73
2023/07/16 01:51:20;;;;;;;1.40;1.00;;;;;;;22.36;100.00;98110.34;3997955;29;20662;-73
2023/07/16 01:53:23;;;;;;;2.80;1.30;;;;;;;22.36;100.00;98115.66;4009619;29;20667;-74
2023/07/16 01:55:27;;;;;;;2.07;1.10;;;;;;;22.35;100.00;98112.16;4011938;29;20662;-73
2023/07/16 01:57:32;;;;;;;4.10;1.40;;;;;;;22.36;100.00;98120.97;3992571;29;20716;-73
2023/07/16 01:59:37;;;;;;;1.97;1.37;;;;;;;22.34;100.00;98118.50;4010959;29;20651;-74
2023/07/16 02:01:41;;;;;;;2.40;1.37;;;;;;;22.36;100.00;98115.66;4012954;29;20687;-74
2023/07/16 02:03:46;;;;;;;1.60;1.10;;;;;;;22.35;100.00;98109.50;4015091;29;20666;-73
2023/07/16 02:05:51;;;;;;;2.17;1.37;;;;;;;22.33;100.00;98108.84;4009982;29;20656;-74
2023/07/16 02:07:54;;;;;;;1.90;1.30;;;;;;;22.33;100.00;98103.53;4000708;29;20662;-73
2023/07/16 02:09:58;;;;;;;2.00;1.30;;;;;;;22.32;100.00;98087.78;4015430;29;20661;-73
2023/07/16 02:12:03;;;;;;;1.80;1.20;;;;;;;22.32;100.00;98093.09;4015400;29;21051;-73
2023/07/16 02:14:07;;;;;;;3.57;1.37;;;;;;;;;;3995975;29;20701;-73
2023/07/16 02:16:15;;;;;;;3.47;1.60;;;;;;;22.26;100.00;98134.47;3991528;29;20772;-73
2023/07/16 02:18:19;;;;;;;1.93;1.63;;;;;;;22.25;100.00;98134.66;4009981;29;20654;-73
2023/07/16 02:20:25;;;;;;;2.73;1.50;;;;;;;22.25;100.00;98143.47;4013244;29;20759;-73
2023/07/16 02:22:29;;;;;;;2.50;1.53;;;;;;;22.25;100.00;98135.50;4013910;29;20670;-73
2023/07/16 02:24:33;;;;;;;2.10;1.30;;;;;;;22.25;100.00;98146.13;4010262;29;20698;-73
2023/07/16 02:26:40;;;;;;;2.17;1.33;;;;;;;22.25;100.00;98145.28;4008022;29;20658;-73
2023/07/16 02:28:47;;;;;;;1.90;1.40;;;;;;;22.23;100.00;98119.91;4008925;29;20761;-74
2023/07/16 02:30:51;;;;;;;1.73;1.50;;;;;;;22.21;100.00;98105.97;4014699;29;20765;-73
2023/07/16 02:32:55;;;;;;;3.83;1.37;;;;;;;22.21;100.00;98119.25;4022355;29;20669;-73
2023/07/16 02:34:58;;;;;;;4.90;1.30;;;;;;;22.22;100.00;98126.22;4005792;29;20700;-74
2023/07/16 02:37:05;;;;;;;2.40;1.13;;;;;;;22.18;100.00;98114.28;3999045;29;20656;-73
2023/07/16 02:39:08;;;;;;;3.57;1.37;;;;;;;22.16;100.00;98110.94;4006512;29;21326;-73
2023/07/16 02:41:12;;;;;;;2.20;1.40;;;;;;;22.15;100.00;98135.88;4011675;29;20687;-73
2023/07/16 02:43:17;;;;;;;2.53;1.20;;;;;;;22.14;100.00;98131.56;4013161;29;20680;-73
2023/07/16 02:45:22;;;;;;;2.10;1.20;;;;;;;22.13;100.00;98140.53;4007957;29;21418;-73
2023/07/16 02:47:25;;;;;;;1.83;1.20;;;;;;;22.11;99.99;98145.19;3992613;29;20694;-73
2023/07/16 02:49:29;;;;;;;2.13;1.27;;;;;;;22.05;99.34;98135.25;4010152;29;20646;-73
2023/07/16 02:51:34;;;;;;;2.00;1.07;;;;;;;22.03;98.53;98137.28;4011008;29;20740;-73
2023/07/16 02:53:40;;;;;;;1.70;0.97;;;;;;;21.99;97.70;98120.00;4011715;29;20690;-73
2023/07/16 02:55:45;;;;;;;2.50;1.40;;;;;;;21.97;98.25;98116.72;4000937;29;20664;-74
2023/07/16 02:57:49;;;;;;;3.87;1.47;;;;;;;21.94;98.49;98117.06;4013191;29;20654;-73
2023/07/16 02:59:51;;;;;;;2.13;1.30;;;;;;;21.90;97.97;98103.28;4009015;29;21023;-73
2023/07/16 03:01:55;;;;;;;2.20;1.10;;;;;;;21.86;97.72;98109.97;4019133;29;20676;-73
2023/07/16 03:03:59;;;;;;;2.50;1.50;;;;;;;21.81;95.87;98108.81;4011231;29;21230;-73
2023/07/16 03:06:03;;;;;;;2.60;1.50;;;;;;;21.81;96.52;98116.78;3996545;29;20667;-73
2023/07/16 03:08:07;;;;;;;2.80;1.67;;;;;;;21.77;96.16;98126.13;4010785;29;20755;-73
2023/07/16 03:10:12;;;;;;;2.20;1.50;;;;;;;21.73;97.50;98124.78;4020915;29;21269;-73
2023/07/16 03:12:16;;;;;;;3.60;1.93;;;;;;;21.68;95.84;98128.94;4012205;29;20654;-73
2023/07/16 03:14:19;;;;;;;2.10;1.30;;;;;;;21.63;97.37;98121.50;4015650;29;21276;-73
2023/07/16 03:16:23;;;;;;;3.13;1.63;;;;;;;21.62;97.85;98121.69;4007940;29;20674;-73
2023/07/16 03:18:29;;;;;;;3.87;1.77;;;;;;;21.58;97.16;98131.00;4009777;29;20694;-73
2023/07/16 03:20:34;;;;;;;3.13;1.60;;;;;;;21.54;96.85;98135.00;4010571;29;21267;-73
2023/07/16 03:22:38;;;;;;;2.50;1.90;;;;;;;21.53;96.53;98152.75;3996936;29;20680;-73
2023/07/16 03:24:43;;;;;;;2.20;1.30;;;;;;;21.51;95.90;98151.25;4012558;29;21275;-73
2023/07/16 03:26:48;;;;;;;3.00;1.23;;;;;;;21.49;96.95;98150.63;4013327;29;21556;-73
2023/07/16 03:28:55;;;;;;;2.90;1.40;;;;;;;21.49;96.11;98151.44;4015006;29;21320;-73
2023/07/16 03:30:59;;;;;;;2.27;1.40;;;;;;;21.46;96.22;98167.69;4013475;29;20662;-73
2023/07/16 03:33:04;;;;;;;2.00;1.37;;;;;;;21.45;96.37;98160.72;4002695;29;20671;-73
2023/07/16 03:35:10;;;;;;;2.47;1.40;;;;;;;21.44;97.01;98177.63;4009409;29;20655;-73
2023/07/16 03:37:14;;;;;;;3.00;1.40;;;;;;;21.43;96.73;98189.25;4016038;29;20686;-73
2023/07/16 03:39:18;;;;;;;2.83;1.50;;;;;;;21.40;96.48;98205.50;4010008;29;20688;-73
2023/07/16 03:41:22;;;;;;;4.27;1.43;;;;;;;21.38;97.29;98212.00;4012534;29;20673;-73
2023/07/16 03:43:27;;;;;;;3.73;1.50;;;;;;;21.36;96.93;98217.47;4016648;29;20727;-73
2023/07/16 03:45:37;;;;;;;4.70;1.50;;;;;;;21.35;96.28;98201.72;3998979;29;21114;-73
2023/07/16 03:47:41;;;;;;;2.57;1.40;;;;;;;21.33;96.89;98201.03;4008121;29;20653;-73
2023/07/16 03:49:45;;;;;;;2.83;1.60;;;;;;;21.33;96.15;98185.13;4011495;29;20710;-73
2023/07/16 03:51:49;;;;;;;2.97;1.67;;;;;;;21.32;96.61;98186.13;4012896;29;21362;-73
2023/07/16 03:53:53;;;;;;;2.60;1.40;;;;;;;21.31;96.10;98211.00;4007433;29;20660;-75
2023/07/16 03:55:58;;;;;;;2.37;1.50;;;;;;;21.31;97.81;98217.13;4011917;29;20639;-75
2023/07/16 03:58:03;;;;;;;3.50;1.80;;;;;;;21.29;98.48;98208.53;4008522;29;21245;-75
2023/07/16 04:00:09;;;;;;;2.57;1.70;;;;;;;21.27;97.18;98210.53;4013722;29;20707;-75
2023/07/16 04:02:16;;;;;;;1.93;1.17;;;;;;;21.26;98.10;98225.75;4015573;29;20755;-75
2023/07/16 04:04:20;;;;;;;2.33;1.40;;;;;;;21.26;97.39;98228.41;4013344;29;20773;-75
2023/07/16 04:06:24;;;;;;;3.50;1.30;;;;;;;21.25;97.61;98245.34;4025753;29;20660;-73
2023/07/16 04:08:27;;;;;;;2.47;1.20;;;;;;;21.26;97.43;98247.00;4008980;29;21198;-73
2023/07/16 04:10:31;;;;;;;3.00;1.20;;;;;;;21.25;96.87;98261.28;4009287;29;20654;-73
2023/07/16 04:12:37;;;;;;;2.33;1.40;;;;;;;21.26;96.24;98261.13;4010966;29;20665;-73
2023/07/16 04:14:41;;;;;;;3.97;1.73;;;;;;;21.26;96.12;98261.13;4007506;29;20702;-73
2023/07/16 04:16:47;;;;;;;2.17;1.40;;;;;;;21.25;96.37;98267.41;4015569;29;20716;-73
2023/07/16 04:18:51;;;;;;;2.90;1.50;;;;;;;21.25;96.14;98263.94;4013145;29;20655;-73
2023/07/16 04:20:55;;;;;;;3.33;1.43;;;;;;;21.23;96.15;98258.78;4013347;29;20677;-73
2023/07/16 04:22:59;;;;;;;2.13;1.30;;;;;;;21.22;94.97;98257.13;4001148;29;20671;-73
2023/07/16 04:25:04;;;;;;;1.83;1.30;;;;;;;21.22;95.84;98266.91;4012411;29;20744;-73
2023/07/16 04:27:08;;;;;;;2.00;1.30;;;;;;;21.22;95.57;98272.22;3999200;29;20732;-73
2023/07/16 04:29:12;;;;;;;2.30;1.73;;;;;;;21.23;96.05;98257.94;4012506;29;22144;-73
2023/07/16 04:31:15;;;;;;;2.10;1.40;;;;;;;21.19;96.44;98246.03;4010454;29;20746;-73
2023/07/16 04:33:20;;;;;;;2.43;1.60;;;;;;;21.18;95.67;98239.88;4006528;29;20669;-73
2023/07/16 04:35:23;;;;;;;8.70;1.70;;;;;;;21.17;95.95;98234.72;4008945;29;20681;-73
2023/07/16 04:37:26;;;;;;;5.50;1.50;;;;;;;21.19;96.16;98243.38;4013059;29;20653;-73
2023/07/16 04:39:30;;;;;;;4.33;1.23;;;;;;;21.20;96.97;98252.97;4010062;29;20687;-73
2023/07/16 04:41:33;;;;;;;2.20;1.30;;;;;;;21.19;97.49;98259.28;4011599;29;20673;-73
2023/07/16 04:43:36;;;;;;;2.70;1.80;;;;;;;21.18;97.67;98257.63;4010774;29;21490;-73
2023/07/16 04:45:40;;;;;;;3.00;1.97;;;;;;;21.19;96.87;98259.28;4006285;29;20671;-73
2023/07/16 04:47:43;;;;;;;4.13;1.27;;;;;;;21.19;96.43;98269.91;3999233;29;21138;-73
2023/07/16 04:49:48;;;;;;;3.77;1.60;;;;;;;21.16;94.79;98275.53;4009380;29;20691;-73
2023/07/16 04:51:52;;;;;;;3.30;1.60;;;;;;;21.14;95.61;98257.13;4013853;29;20653;-73
2023/07/16 04:53:55;;;;;;;2.17;1.40;;;;;;;21.14;94.74;98275.69;4013466;29;21272;-73
2023/07/16 04:55:59;;;;;;;2.50;1.30;;;;;;;21.15;96.38;98276.53;3999379;29;20659;-73
2023/07/16 04:58:03;;;;;;;5.33;1.90;;;;;;;21.15;96.34;98289.78;4011935;29;20716;-73
2023/07/16 05:00:08;;;;;;;2.07;1.50;;;;;;;21.15;94.91;98295.09;4006240;29;20728;-73
2023/07/16 05:02:12;;;;;;;3.20;1.60;;;;;;;21.15;96.32;98295.91;4014549;29;20657;-73
2023/07/16 05:04:15;;;;;;;3.87;1.60;;;;;;;21.15;95.16;98306.53;4012272;29;21099;-73
2023/07/16 05:06:20;;;;;;;5.43;1.87;;;;;;;21.15;94.72;98303.88;4011267;29;21020;-73
2023/07/16 05:08:24;;;;;;;3.07;1.63;;;;;;;21.11;95.40;98302.56;4010667;29;20654;-73
2023/07/16 05:10:27;;;;;;;3.33;1.90;;;;;;;21.11;94.71;98302.56;4013216;29;21258;-73
2023/07/16 05:12:31;;;;;;;2.60;1.77;;;;;;;21.12;94.36;98295.44;4011188;29;20704;-73
2023/07/16 05:14:44;;;;;;;2.43;1.50;;;;;;;21.11;95.24;98299.06;4008962;29;20659;-73
2023/07/16 05:16:48;;;;;;;2.50;1.80;;;;;;;21.12;95.60;98295.44;4014348;29;20666;-73
2023/07/16 05:18:51;;;;;;;3.27;1.80;;;;;;;21.15;95.64;98293.25;4013515;29;20658;-73
2023/07/16 05:20:54;;;;;;;2.27;1.67;;;;;;;21.18;96.02;98305.38;4011793;29;21312;-73
2023/07/16 05:22:59;;;;;;;3.10;1.57;;;;;;;21.21;95.38;98295.25;4011595;29;20691;-73
2023/07/16 05:25:02;;;;;;;2.63;2.23;;;;;;;21.25;96.83;98304.56;4010315;29;21020;-73
2023/07/16 05:27:06;;;;;;;3.13;1.50;;;;;;;21.27;96.27;98309.69;4011842;29;20671;-73
2023/07/16 05:29:10;;;;;;;2.40;1.53;;;;;;;21.32;96.14;98311.69;3993412;29;21229;-73
2023/07/16 05:31:13;;;;;;;2.67;1.50;;;;;;;21.36;95.56;98321.00;4013492;29;20674;-73
2023/07/16 05:33:17;;;;;;;2.70;1.50;;;;;;;21.38;94.90;98323.50;3999243;29;20726;-73
2023/07/16 05:35:20;;;;;;;3.27;1.43;;;;;;;21.40;94.88;98311.69;4010920;29;20750;-73
2023/07/16 05:37:24;;;;;;;2.80;1.60;;;;;;;21.41;95.10;98315.19;4008085;29;20695;-73
2023/07/16 05:39:28;;;;;;;3.73;1.43;;;;;;;21.44;93.96;98307.72;3998929;29;20671;-73
2023/07/16 05:41:31;;;;;;;2.50;1.50;;;;;;;21.46;93.42;98304.94;4008886;29;20709;-73
2023/07/16 05:43:35;;;;;;;2.53;1.60;;;;;;;21.49;94.53;98318.69;4013422;29;20707;-73
2023/07/16 05:45:39;;;;;;;4.67;1.90;;;;;;;21.48;94.87;98310.88;4013404;29;20696;-73
2023/07/16 05:47:42;;;;;;;2.83;1.63;;;;;;;21.46;93.51;98310.25;4009463;29;20659;-73
2023/07/16 05:49:46;;;;;;;2.50;1.70;;;;;;;21.46;93.27;98316.38;4010772;29;20657;-73
2023/07/16 05:51:49;;;;;;;3.23;1.50;;;;;;;21.45;93.91;98314.69;4012808;29;20649;-73
2023/07/16 05:53:54;;;;;;;7.00;1.80;;;;;;;21.44;93.85;98331.59;4010510;29;20675;-73
2023/07/16 05:55:59;;;;;;;3.57;1.60;;;;;;;21.43;93.40;98329.94;4011540;29;20661;-73
2023/07/16 05:58:02;;;;;;;2.67;1.70;;;;;;;21.43;92.99;98326.47;4007715;29;21332;-73
2023/07/16 06:00:08;;;;;;;2.60;1.50;;;;;;;21.46;93.76;98328.81;4008235;29;21105;-73
2023/07/16 06:02:14;;;;;;;3.40;1.97;;;;;;;21.51;92.59;98329.16;4010632;29;20659;-73
2023/07/16 06:04:18;;;;;;;3.20;1.80;;;;;;;21.55;92.78;98328.66;4010926;29;20674;-73
2023/07/16 06:06:22;;;;;;;2.60;1.80;;;;;;;21.61;92.09;98345.75;4012899;29;20662;-73
2023/07/16 06:08:26;;;;;;;2.23;1.50;;;;;;;21.60;90.27;98336.94;4012229;29;20636;-73
2023/07/16 06:10:29;;;;;;;1.87;1.20;;;;;;;21.57;89.75;98342.56;4009485;29;20666;-73
2023/07/16 06:12:34;;;;;;;3.63;1.40;;;;;;;21.55;91.05;98336.63;4024997;29;20710;-73
2023/07/16 06:14:38;;;;;;;2.00;1.27;;;;;;;21.55;89.72;98341.09;4010906;29;20693;-73
2023/07/16 06:16:41;;;;;;;2.37;1.47;;;;;;;21.59;90.78;98334.44;4006245;29;20666;-73
2023/07/16 06:18:45;;;;;;;3.50;1.77;;;;;;;21.61;90.06;98327.16;4008227;29;20692;-73
2023/07/16 06:20:48;;;;;;;2.53;1.63;;;;;;;21.66;89.66;98333.63;4010099;29;20663;-73
2023/07/16 06:22:52;;;;;;;5.80;1.40;;;;;;;21.76;89.83;98335.09;4012676;29;20668;-73
2023/07/16 06:24:56;;;;;;;6.83;1.70;;;;;;;21.91;89.02;98330.75;3998005;29;20785;-73
2023/07/16 06:27:00;;;;;;;3.80;2.00;;;;;;;22.23;90.24;98338.69;4011598;29;20695;-73
2023/07/16 06:29:05;;;;;;;4.40;1.60;;;;;;;22.54;88.69;98345.72;4010089;29;20674;-74
2023/07/16 06:31:08;;;;;;;3.23;1.80;;;;;;;22.54;87.91;98350.22;4012307;29;21243;-73
2023/07/16 06:33:12;;;;;;;3.50;1.70;;;;;;;22.42;86.06;98352.44;4026040;29;22197;-73
2023/07/16 06:35:15;;;;;;;4.60;1.70;;;;;;;22.32;86.30;98354.44;4015577;29;20690;-73
2023/07/16 06:37:23;;;;;;;4.83;2.00;;;;;;;22.23;86.41;98357.28;4017340;29;20697;-74
2023/07/16 06:39:26;;;;;;;4.30;1.70;;;;;;;22.17;86.18;98357.13;4012955;29;20685;-73
2023/07/16 06:41:31;;;;;;;4.53;2.23;;;;;;;22.12;85.12;98359.47;4009658;29;20673;-73
2023/07/16 06:43:35;;;;;;;4.23;1.90;;;;;;;22.11;86.14;98355.16;4023684;29;20676;-73
2023/07/16 06:45:40;;;;;;;3.30;1.73;;;;;;;22.10;86.15;98343.69;4012819;29;20713;-73
2023/07/16 06:47:45;;;;;;;2.80;1.60;;;;;;;22.11;86.24;98339.19;4015082;29;21609;-73
2023/07/16 06:49:48;;;;;;;3.63;1.80;;;;;;;22.12;87.07;98341.69;4015246;29;21182;-73
2023/07/16 06:51:51;;;;;;;6.10;3.13;;;;;;;22.15;85.86;98340.53;4010514;29;25493;-73
2023/07/16 06:53:54;;;;;;;3.30;1.77;;;;;;;22.20;86.75;98332.88;4013489;29;20670;-73
2023/07/16 06:56:00;;;;;;;3.43;1.90;;;;;;;22.38;87.62;98340.47;4012367;29;20667;-73
2023/07/16 06:58:03;;;;;;;4.07;2.10;;;;;;;22.71;87.37;98349.97;4009409;29;21246;-73
2023/07/16 07:00:10;;;;;;;3.50;1.57;;;;;;;22.81;84.76;98339.97;4009751;29;20657;-73
2023/07/16 07:02:17;;;;;;;3.70;1.60;;;;;;;22.88;85.36;98335.56;4020251;29;21095;-73
2023/07/16 07:04:20;;;;;;;2.40;1.33;;;;;;;22.93;84.73;98327.91;4015575;29;20664;-73
2023/07/16 07:06:24;;;;;;;1.87;1.30;;;;;;;22.92;83.28;98321.75;4015499;29;20663;-73
2023/07/16 07:08:28;;;;;;;3.10;2.00;;;;;;;22.93;83.23;98325.25;3999327;29;20811;-73
2023/07/16 07:10:32;;;;;;;5.07;2.03;;;;;;;22.96;83.01;98327.59;4013918;29;20678;-76
2023/07/16 07:12:37;;;;;;;2.50;1.30;;;;;;;23.01;83.98;98327.91;4007695;29;20827;-73
2023/07/16 07:14:40;;;;;;;3.90;1.63;;;;;;;23.06;83.66;98329.00;3995367;29;21167;-73
2023/07/16 07:16:44;;;;;;;3.00;1.40;;;;;;;23.16;83.68;98345.59;4012433;29;21242;-73
2023/07/16 07:18:49;;;;;;;3.77;1.93;;;;;;;23.19;81.82;98341.75;4009237;29;20735;-73
2023/07/16 07:20:52;;;;;;;3.60;1.73;;;;;;;23.25;80.72;98347.19;4011039;29;20670;-73
2023/07/16 07:22:55;;;;;;;3.70;1.50;;;;;;;23.30;80.88;98350.16;4011542;29;20750;-73
2023/07/16 07:24:59;;;;;;;3.53;1.60;;;;;;;23.37;80.97;98349.25;4017767;29;21536;-73
2023/07/16 07:27:02;;;;;;;3.00;1.63;;;;;;;23.47;81.32;98355.19;4018537;29;21240;-74
2023/07/16 07:29:06;;;;;;;3.10;1.50;;;;;;;23.95;78.91;98355.66;4007687;29;21127;-73
2023/07/16 07:31:09;;;;;;;8.23;1.90;;;;;;;24.42;77.96;98353.50;4010571;29;21130;-73
2023/07/16 07:33:12;;;;;;;4.00;1.70;;;;;;;24.81;75.63;98354.84;4016223;29;21266;-73
2023/07/16 07:35:17;;;;;;;2.73;1.60;;;;;;;25.14;77.07;98348.91;4011883;29;20670;-73
2023/07/16 07:37:20;;;;;;;4.33;2.17;;;;;;;25.32;75.46;98349.31;4017568;29;20688;-73
2023/07/16 07:39:24;;;;;;;2.70;1.70;;;;;;;25.57;70.99;98351.41;4013855;29;21676;-73
2023/07/16 07:41:27;;;;;;;4.80;1.90;;;;;;;25.78;70.33;98340.72;4012048;29;20685;-73
2023/07/16 07:43:31;;;;;;;4.33;1.40;;;;;;;25.92;70.87;98347.84;4014329;29;20665;-73
2023/07/16 07:45:34;;;;;;;2.97;1.60;;;;;;;26.04;72.25;98352.47;4009389;29;20728;-74
2023/07/16 07:47:37;;;;;;;3.03;1.57;;;;;;;25.83;70.28;98351.66;4010329;29;20773;-74
2023/07/16 07:49:41;;;;;;;2.67;1.30;;;;;;;25.81;70.19;98353.72;4009780;29;21040;-73
2023/07/16 07:51:47;;;;;;;2.80;1.77;;;;;;;25.76;70.46;98356.16;4015343;29;20668;-73
2023/07/16 07:53:50;;;;;;;3.10;1.80;;;;;;;25.56;69.45;98363.13;4031468;29;20672;-73
2023/07/16 07:55:55;;;;;;;6.40;1.60;;;;;;;25.35;69.98;98368.47;3998557;29;20665;-73
2023/07/16 07:57:58;;;;;;;2.73;1.50;;;;;;;25.37;70.46;98365.59;3996720;29;20795;-74
2023/07/16 08:00:02;;;;;;;3.03;1.60;;;;;;;25.19;70.47;98349.19;4012968;29;20657;-73
2023/07/16 08:02:14;;;;;;;4.20;1.60;;;;;;;25.18;70.54;98351.03;4012227;29;21110;-73
2023/07/16 08:04:18;;;;;;;3.03;1.60;;;;;;;25.17;72.07;98346.69;4008219;29;20672;-73
2023/07/16 08:06:24;;;;;;;3.10;1.50;;;;;;;25.05;71.25;98343.88;4013972;29;21260;-73
2023/07/16 08:08:29;;;;;;;2.03;1.63;;;;;;;25.25;73.54;98359.09;4017446;29;20665;-74
2023/07/16 08:10:33;;;;;;;3.63;1.67;;;;;;;25.73;72.58;98372.56;4015987;29;20649;-74
2023/07/16 08:12:36;;;;;;;3.80;1.67;;;;;;;26.06;68.74;98374.50;4012732;29;20686;-74
2023/07/16 08:14:41;;;;;;;3.30;1.83;;;;;;;26.14;67.13;98371.69;4024208;29;20660;-74
2023/07/16 08:16:44;;;;;;;3.70;1.97;;;;;;;26.45;68.07;98378.31;4007713;29;20721;-73
2023/07/16 08:18:48;;;;;;;3.33;2.03;;;;;;;26.73;67.01;98379.09;4013098;29;20656;-74
2023/07/16 08:20:52;;;;;;;2.60;1.33;;;;;;;26.84;65.64;98378.53;4010443;29;20689;-73
2023/07/16 08:22:56;;;;;;;2.63;2.03;;;;;;;26.94;64.11;98376.34;4009314;29;21310;-74
2023/07/16 08:25:01;;;;;;;4.90;1.60;;;;;;;27.15;66.51;98371.69;4007904;29;20673;-74
2023/07/16 08:27:06;;;;;;;5.97;1.60;;;;;;;27.39;65.39;98369.28;3997321;29;20695;-74
2023/07/16 08:29:09;;;;;;;3.10;1.73;;;;;;;27.52;67.56;98371.22;4015607;29;20661;-74
2023/07/16 08:31:13;;;;;;;3.50;1.37;;;;;;;27.53;64.82;98371.81;4015014;29;20657;-74
2023/07/16 08:33:17;;;;;;;2.93;1.60;;;;;;;27.71;64.93;98368.53;4012394;29;21010;-74
2023/07/16 08:35:20;;;;;;;3.20;1.67;;;;;;;27.49;65.84;98368.91;4013388;29;20735;-74
2023/07/16 08:37:23;;;;;;;2.10;1.30;;;;;;;27.08;65.40;98358.28;4012747;29;21083;-74
2023/07/16 08:39:26;;;;;;;2.47;1.60;;;;;;;27.17;64.36;98359.75;4010931;29;20686;-74
2023/07/16 08:41:32;;;;;;;4.67;1.87;;;;;;;27.41;64.93;98364.56;4024910;29;20703;-73
2023/07/16 08:43:35;;;;;;;2.30;1.50;;;;;;;27.59;64.21;98364.84;4010281;29;20659;-74
2023/07/16 08:45:40;;;;;;;3.30;1.93;;;;;;;27.74;63.66;98357.41;4001018;29;20705;-74
2023/07/16 08:47:44;;;;;;;2.97;1.50;;;;;;;27.84;62.25;98349.78;4012097;29;20661;-74
2023/07/16 08:49:56;;;;;;;2.43;1.63;;;;;;;27.70;63.36;98334.72;4016107;29;20662;-73
2023/07/16 08:52:02;;;;;;;2.87;1.30;;;;;;;27.23;63.43;98315.25;4014624;29;20718;-74
2023/07/16 08:54:05;;;;;;;2.10;1.40;;;;;;;27.30;66.44;98332.16;4012018;29;20659;-74
2023/07/16 08:56:09;;;;;;;2.50;1.70;;;;;;;27.25;64.55;98332.75;4013604;29;20644;-74
2023/07/16 08:58:15;;;;;;;4.57;1.63;;;;;;;27.04;62.89;98341.97;4011059;29;21322;-74
2023/07/16 09:00:19;;;;;;;2.53;1.60;;;;;;;26.86;63.70;98336.31;4008922;29;20662;-74
2023/07/16 09:02:24;;;;;;;2.13;1.30;;;;;;;26.78;65.05;98331.94;4009552;29;20673;-73
2023/07/16 09:04:29;;;;;;;3.03;1.40;;;;;;;26.70;65.43;98328.59;4010290;29;20652;-74
2023/07/16 09:06:33;;;;;;;3.70;1.90;;;;;;;26.65;64.32;98339.09;4011813;29;20738;-73
2023/07/16 09:08:36;;;;;;;2.47;1.47;;;;;;;26.64;64.51;98332.94;4014970;29;20650;-73
2023/07/16 09:10:41;;;;;;;2.70;1.50;;;;;;;26.79;65.25;98340.81;4013342;29;21042;-75
2023/07/16 09:12:45;;;;;;;4.90;1.83;;;;;;;27.19;63.59;98355.00;4012470;29;20670;-74
2023/07/16 09:14:50;;;;;;;2.50;1.27;;;;;;;27.49;63.83;98360.84;4013232;29;20674;-73
2023/07/16 09:16:54;;;;;;;3.17;1.83;;;;;;;27.66;62.52;98360.28;4012531;29;21210;-73
2023/07/16 09:19:06;;;;;;;6.30;1.50;;;;;;;27.80;61.79;98360.09;4015652;29;21337;-73
2023/07/16 09:21:10;;;;;;;3.50;1.60;;;;;;;27.96;63.19;98353.50;4011945;29;20667;-73
2023/07/16 09:23:13;;;;;;;2.63;1.60;;;;;;;28.01;63.03;98351.88;4010063;29;20848;-73
2023/07/16 09:25:16;;;;;;;3.37;1.90;;;;;;;28.03;63.06;98357.84;4013580;29;20796;-73
2023/07/16 09:27:19;;;;;;;3.13;2.07;;;;;;;28.11;62.84;98361.16;4008727;29;20663;-72
2023/07/16 09:29:23;;;;;;;3.77;1.60;;;;;;;28.21;62.78;98347.34;4014399;29;21301;-73
2023/07/16 09:31:28;;;;;;;2.77;1.37;;;;;;;28.15;66.00;98346.28;4011799;29;20657;-73
2023/07/16 09:33:32;;;;;;;3.13;1.70;;;;;;;28.03;63.24;98342.53;4014999;29;20666;-73
2023/07/16 09:35:36;;;;;;;3.90;2.10;;;;;;;27.71;62.45;98322.94;4012742;29;20657;-73
2023/07/16 09:37:40;;;;;;;5.27;1.93;;;;;;;27.57;62.77;98332.84;4013774;29;20671;-73
2023/07/16 09:39:46;;;;;;;3.60;2.07;;;;;;;27.67;63.66;98335.13;4009014;29;21100;-73
2023/07/16 09:41:49;;;;;;;4.20;1.60;;;;;;;27.87;62.81;98331.41;4009556;29;20731;-73
2023/07/16 09:43:52;;;;;;;2.20;1.30;;;;;;;28.16;61.43;98325.63;4028925;29;21249;-73